createdAt,value
2022-11-29T15:44:34.218Z,23.63
2022-11-29T15:47:23.537Z,22.73
2022-11-29T15:49:53.316Z,22.98
2022-11-29T15:52:31.059Z,21.38
2022-11-29T15:55:03.668Z,21.83
2022-11-29T15:57:36.442Z,20.88
2022-11-29T16:00:24.136Z,22.10
2022-11-29T16:03:02.619Z,21.67
2022-11-29T16:05:37.469Z,21.70
2022-11-29T16:08:13.883Z,21.02
2022-11-29T16:10:47.738Z,20.60
2022-11-29T16:13:36.211Z,20.17
2022-11-29T16:16:12.442Z,19.92
2022-11-29T16:18:42.780Z,20.85
2022-11-29T16:21:26.674Z,20.67
2022-11-29T16:23:55.647Z,22.27
2022-11-29T16:26:34.847Z,23.58
2022-11-29T16:29:03.569Z,21.50
2022-11-29T16:31:36.028Z,21.20
2022-11-29T16:34:22.240Z,21.98
2022-11-29T16:37:08.394Z,21.17
2022-11-29T16:39:38.645Z,20.00
2022-11-29T16:42:08.538Z,21.63
2022-11-29T16:44:41.944Z,21.77
2022-11-29T16:47:25.652Z,20.52
2022-11-29T16:50:02.641Z,21.10
2022-11-29T16:52:34.613Z,20.48
2022-11-29T16:55:02.295Z,20.45
2022-11-29T16:57:30.462Z,21.05
2022-11-29T16:59:58.354Z,20.55
2022-11-29T17:02:29.065Z,20.63
2022-11-29T17:04:58.284Z,21.48
2022-11-29T17:07:32.699Z,20.17
2022-11-29T17:10:00.533Z,20.42
2022-11-29T17:12:29.397Z,20.83
2022-11-29T17:14:57.034Z,21.42
2022-11-29T17:17:24.807Z,21.02
2022-11-29T17:19:53.609Z,21.58
2022-11-29T17:22:21.630Z,21.30
2022-11-29T17:24:50.298Z,21.92
2022-11-29T17:27:18.217Z,20.35
2022-11-29T17:29:45.927Z,20.45
2022-11-29T17:32:13.580Z,20.65
2022-11-29T17:34:41.442Z,20.90
2022-11-29T17:37:09.215Z,21.02
2022-11-29T17:39:37.002Z,20.77
2022-11-29T17:42:04.679Z,20.38
2022-11-29T17:44:34.157Z,21.38
2022-11-29T17:47:01.766Z,22.38
2022-11-29T17:49:30.532Z,20.65
2022-11-29T17:51:58.960Z,21.38
2022-11-29T17:54:26.945Z,22.75
2022-11-29T17:56:55.347Z,23.42
2022-11-29T17:59:23.138Z,22.98
2022-11-29T18:01:50.893Z,21.92
2022-11-29T18:04:18.824Z,21.67
2022-11-29T18:06:50.211Z,23.58
2022-11-29T18:09:20.033Z,22.63
2022-11-29T18:11:50.109Z,23.83
2022-11-29T18:14:21.456Z,23.83
2022-11-29T18:16:49.627Z,25.27
2022-11-29T18:19:19.745Z,23.70
2022-11-29T18:21:48.319Z,21.85
2022-11-29T18:24:16.004Z,25.05
2022-11-29T18:26:44.285Z,24.85
2022-11-29T18:29:12.747Z,25.30
2022-11-29T18:31:44.064Z,24.75
2022-11-29T18:34:13.404Z,25.25
2022-11-29T18:36:43.864Z,23.10
2022-11-29T18:39:16.847Z,24.23
2022-11-29T18:41:49.540Z,24.20
2022-11-29T18:44:21.908Z,23.42
2022-11-29T18:46:51.712Z,24.13
2022-11-29T18:49:20.488Z,22.83
2022-11-29T18:51:53.067Z,24.00
2022-11-29T18:54:23.063Z,23.67
2022-11-29T18:56:52.357Z,24.42
2022-11-29T18:59:22.420Z,24.48
2022-11-29T19:01:50.362Z,21.77
2022-11-29T19:04:20.827Z,22.90
2022-11-29T19:06:49.582Z,23.73
2022-11-29T19:09:21.465Z,22.25
2022-11-29T19:11:50.040Z,23.25
2022-11-29T19:14:18.643Z,22.88
2022-11-29T19:16:48.898Z,23.15
2022-11-29T19:19:18.875Z,22.20
2022-11-29T19:21:47.507Z,23.15
2022-11-29T19:24:18.000Z,21.70
2022-11-29T19:26:47.536Z,22.80
2022-11-29T19:29:15.981Z,23.17
2022-11-29T19:31:43.881Z,22.42
2022-11-29T19:34:11.713Z,22.42
2022-11-29T19:36:44.788Z,22.85
2022-11-29T19:39:17.070Z,23.48
2022-11-29T19:41:47.217Z,23.33
2022-11-29T19:44:15.647Z,21.25
2022-11-29T19:46:46.115Z,21.73
2022-11-29T19:49:13.785Z,23.30
2022-11-29T19:51:41.879Z,22.45
2022-11-29T19:54:10.649Z,22.13
2022-11-29T19:56:39.036Z,21.95
2022-11-29T19:59:08.132Z,22.23
2022-11-29T20:01:40.952Z,22.27
2022-11-29T20:04:11.710Z,21.77
2022-11-29T20:06:39.936Z,23.48
2022-11-29T20:09:07.978Z,22.25
2022-11-29T20:11:35.960Z,21.55
2022-11-29T20:14:05.843Z,21.00
2022-11-29T20:16:34.052Z,20.92
2022-11-29T20:19:02.019Z,22.08
2022-11-29T20:21:31.784Z,20.70
2022-11-29T20:24:05.863Z,22.17
2022-11-29T20:26:36.336Z,22.15
2022-11-29T20:29:06.218Z,21.33
2022-11-29T20:31:35.648Z,23.75
2022-11-29T20:34:06.898Z,22.92
2022-11-29T20:37:00.895Z,23.33
2022-11-29T20:39:37.906Z,22.25
2022-11-29T20:42:27.396Z,22.75
2022-11-29T20:44:57.911Z,22.90
2022-11-29T20:47:33.815Z,22.17
2022-11-29T20:50:01.881Z,21.50
2022-11-29T20:53:00.848Z,23.58
2022-11-29T20:55:28.687Z,22.58
2022-11-29T20:57:56.435Z,22.73
2022-11-29T21:00:24.422Z,21.63
2022-11-29T21:02:52.140Z,21.95
2022-11-29T21:05:19.978Z,23.33
2022-11-29T21:07:47.776Z,23.58
2022-11-29T21:10:15.744Z,24.17
2022-11-29T21:12:45.872Z,23.10
2022-11-29T21:15:15.340Z,22.10
2022-11-29T21:17:43.540Z,23.10
2022-11-29T21:20:37.883Z,23.40
2022-11-29T21:23:18.783Z,22.70
2022-11-29T21:26:10.434Z,23.05
2022-11-29T21:28:47.035Z,23.65
2022-11-29T21:31:18.517Z,24.35
2022-11-29T21:33:46.938Z,24.23
